Time;durP1;ratioP1;P1;durP2;ratioP2;P2;SDS_P1;SDS_P2;PMS_P1;PMS_P2;Temp;Humidity;BMP_temperature;BMP_pressure;BME280_temperature;BME280_humidity;BME280_pressure;Samples;Min_cycle;Max_cycle;Signal;HPM_P1;HPM_P2
2022/05/03 00:01:24;;;;;;;0.50;0.43;;;;;;;12.80;100.00;95006.56;5114540;28;20968;-53
2022/05/03 00:04:02;;;;;;;0.83;0.37;;;;;;;12.32;100.00;95005.19;5115317;28;20425;-53
2022/05/03 00:06:34;;;;;;;0.60;0.50;;;;;;;12.16;100.00;94932.88;5114910;28;20431;-53
2022/05/03 00:09:07;;;;;;;1.43;0.33;;;;;;;12.49;100.00;95008.13;5114492;28;21027;-53
2022/05/03 00:11:46;;;;;;;0.47;0.43;;;;;;;12.00;100.00;95011.97;5113776;28;20443;-53
2022/05/03 00:14:21;;;;;;;0.60;0.60;;;;;;;11.65;100.00;94972.56;5114880;28;20981;-53
2022/05/03 00:16:51;;;;;;;2.10;0.60;;;;;;;12.04;100.00;95006.91;5114692;28;20565;-53
2022/05/03 00:19:20;;;;;;;0.73;0.70;;;;;;;11.44;100.00;94934.84;5115017;28;20511;-53
2022/05/03 00:21:50;;;;;;;0.50;0.47;;;;;;;11.53;100.00;94977.47;5113672;28;20518;-53
2022/05/03 00:24:19;;;;;;;0.63;0.63;;;;;;;11.75;100.00;95003.53;5114707;28;20419;-50
2022/05/03 00:26:50;;;;;;;1.90;1.07;;;;;;;11.75;100.00;95006.19;5114427;28;20543;-53
2022/05/03 00:29:19;;;;;;;0.63;0.60;;;;;;;11.73;100.00;95008.34;5114462;28;20463;-51
2022/05/03 00:31:47;;;;;;;0.60;0.50;;;;;;;12.20;100.00;95013.56;5114584;28;20510;-51
2022/05/03 00:34:17;;;;;;;1.10;0.57;;;;;;;12.32;100.00;95011.28;5114656;28;20439;-52
2022/05/03 00:36:45;;;;;;;0.77;0.67;;;;;;;12.14;100.00;95003.31;5114156;28;20459;-52
2022/05/03 00:39:14;;;;;;;2.33;1.03;;;;;;;12.28;100.00;94978.41;5114649;28;20506;-52
2022/05/03 00:41:46;;;;;;;0.40;0.30;;;;;;;12.74;100.00;94989.94;5114251;28;20975;-52
2022/05/03 00:47:19;;;;;;;8.43;1.70;;;;;;;12.16;100.00;94999.28;5114479;28;20459;-51
2022/05/03 00:50:01;;;;;;;0.40;0.30;;;;;;;11.98;100.00;95000.84;5114117;28;20514;-52
2022/05/03 00:52:36;;;;;;;1.37;0.70;;;;;;;12.28;100.00;95001.50;5114101;28;20427;-52
2022/05/03 00:55:49;;;;;;;0.40;0.30;;;;;;;12.25;100.00;94997.56;5114190;28;20450;-52
2022/05/03 00:58:34;;;;;;;2.10;0.53;;;;;;;12.08;100.00;95000.72;5056362;28;20471;-52
2022/05/03 01:01:05;;;;;;;0.90;0.80;;;;;;;11.68;100.00;94940.16;5114192;28;20866;-53
2022/05/03 01:03:47;;;;;;;0.40;0.30;;;;;;;12.17;100.00;94995.53;5113827;28;20423;-52
2022/05/03 01:06:22;;;;;;;0.83;0.83;;;;;;;12.21;100.00;94988.59;5113192;28;20511;-53
2022/05/03 01:09:04;;;;;;;0.77;0.77;;;;;;;11.76;100.00;94989.19;5113764;28;20527;-53
2022/05/03 01:11:42;;;;;;;0.60;0.60;;;;;;;11.69;100.00;94989.50;5113698;28;20426;-53
2022/05/03 01:14:36;;;;;;;1.03;0.80;;;;;;;11.50;100.00;94986.00;5113514;28;20455;-52
2022/05/03 01:17:11;;;;;;;0.57;0.50;;;;;;;11.55;100.00;94990.47;5113560;28;20471;-53
2022/05/03 01:19:57;;;;;;;1.00;0.83;;;;;;;11.53;100.00;94982.78;5113732;28;20455;-53
2022/05/03 01:22:48;;;;;;;0.53;0.53;;;;;;;11.48;100.00;94985.50;5113408;28;20470;-52
2022/05/03 01:25:47;;;;;;;2.87;0.53;;;;;;;11.37;100.00;94981.38;5113482;28;20470;-53
2022/05/03 01:28:25;;;;;;;0.50;0.40;;;;;;;11.69;100.00;94984.22;5112938;28;20443;-53
2022/05/03 01:30:58;;;;;;;0.40;0.40;;;;;;;11.77;100.00;94982.78;5113405;28;20427;-53
2022/05/03 01:33:32;;;;;;;3.83;0.50;;;;;;;11.95;100.00;94984.69;5113711;28;20427;-52
2022/05/03 01:36:01;;;;;;;1.17;0.63;;;;;;;12.44;100.00;94974.44;5113273;28;20427;-52
2022/05/03 01:38:43;;;;;;;0.40;0.30;;;;;;;12.14;100.00;94971.44;5113276;28;20546;-53
2022/05/03 01:41:24;;;;;;;0.40;0.33;;;;;;;11.77;100.00;94970.31;5113602;28;20797;-52
2022/05/03 01:44:02;;;;;;;0.50;0.47;;;;;;;11.71;100.00;94974.13;5113053;28;20554;-54
2022/05/03 01:46:36;;;;;;;0.63;0.57;;;;;;;11.91;100.00;94970.41;5113205;28;20463;-52
2022/05/03 01:52:37;;;;;;;0.60;0.57;;;;;;;12.17;100.00;94970.88;5113283;28;20857;-52
2022/05/03 01:55:17;;;;;;;0.50;0.43;;;;;;;11.92;100.00;94967.47;5112984;28;21015;-52
2022/05/03 01:58:01;;;;;;;0.50;0.30;;;;;;;11.11;100.00;94853.53;5113167;28;20490;-52
2022/05/03 02:00:35;;;;;;;0.40;0.30;;;;;;;12.20;100.00;94968.41;5113247;28;20511;-52
2022/05/03 02:03:14;;;;;;;0.50;0.40;;;;;;;12.28;100.00;94959.78;5112972;28;20484;-52
2022/05/03 02:05:59;;;;;;;0.57;0.57;;;;;;;11.88;100.00;94961.16;5112750;28;20454;-52
2022/05/03 02:08:38;;;;;;;2.63;0.57;;;;;;;11.32;100.00;94902.63;5112578;28;20471;-53
2022/05/03 02:11:45;;;;;;;0.63;0.63;;;;;;;12.06;100.00;94970.22;5112872;28;20447;-53
2022/05/03 02:17:04;;;;;;;1.73;0.90;;;;;;;11.58;100.00;94974.78;5112473;28;20984;-53
2022/05/03 02:19:48;;;;;;;0.90;0.90;;;;;;;11.61;100.00;94970.75;5112613;28;20424;-53
2022/05/03 02:22:37;;;;;;;1.80;1.47;;;;;;;11.61;100.00;94970.75;5112334;28;20427;-53
2022/05/03 02:25:13;;;;;;;0.73;0.73;;;;;;;11.59;100.00;94973.69;5111985;28;20472;-53
2022/05/03 02:27:49;;;;;;;1.20;1.20;;;;;;;11.54;100.00;94968.44;5112229;28;20463;-53
2022/05/03 02:30:20;;;;;;;0.77;0.77;;;;;;;11.41;100.00;94892.94;5112244;28;20458;-53
2022/05/03 02:32:58;;;;;;;2.63;0.60;;;;;;;11.69;100.00;94973.59;5112225;28;20416;-52
2022/05/03 02:35:33;;;;;;;0.50;0.50;;;;;;;11.44;100.00;94972.00;5111894;28;20502;-52
2022/05/03 02:38:05;;;;;;;0.60;0.60;;;;;;;12.01;100.00;94962.31;5112307;28;20931;-52
2022/05/03 02:40:35;;;;;;;0.60;0.60;;;;;;;12.16;100.00;94964.75;5112160;28;20427;-53
2022/05/03 02:43:05;;;;;;;0.77;0.73;;;;;;;11.88;100.00;94910.69;5112200;28;20511;-53
2022/05/03 02:45:40;;;;;;;1.43;0.43;;;;;;;12.35;100.00;94968.19;5112297;28;20502;-52
2022/05/03 02:48:15;;;;;;;0.40;0.30;;;;;;;12.72;100.00;94960.16;5111989;28;20423;-52
2022/05/03 02:50:53;;;;;;;0.50;0.50;;;;;;;12.73;100.00;94961.75;5112006;28;20518;-52
2022/05/03 02:53:28;;;;;;;0.30;0.20;;;;;;;12.86;100.00;94967.41;5112268;28;20514;-52
2022/05/03 02:56:09;;;;;;;0.47;0.47;;;;;;;12.87;100.00;94969.00;5112356;28;20450;-52
2022/05/03 02:58:49;;;;;;;0.40;0.40;;;;;;;12.80;100.00;94966.69;5111888;28;20478;-52
2022/05/03 03:04:21;;;;;;;0.97;0.97;;;;;;;12.70;100.00;94977.47;5111897;28;20461;-53
2022/05/03 03:06:55;;;;;;;0.40;0.30;;;;;;;12.53;100.00;94974.56;5111806;28;20457;-53
2022/05/03 03:09:35;;;;;;;0.50;0.40;;;;;;;12.56;100.00;94985.44;5111794;28;20510;-53
2022/05/03 03:12:05;;;;;;;0.53;0.40;;;;;;;12.40;100.00;94975.28;5111912;28;20595;-53
2022/05/03 03:14:43;;;;;;;0.40;0.30;;;;;;;11.90;100.00;94932.44;5111835;28;20910;-52
2022/05/03 03:17:13;;;;;;;0.40;0.30;;;;;;;12.73;100.00;94985.69;5111998;28;20860;-53
2022/05/03 03:20:06;;;;;;;0.40;0.40;;;;;;;13.07;100.00;94985.44;5111750;28;20462;-51
2022/05/03 03:22:40;;;;;;;3.13;1.03;;;;;;;13.06;100.00;94989.16;5107303;28;20443;-51
2022/05/03 03:25:10;;;;;;;1.37;0.93;;;;;;;12.85;100.00;94982.56;5111877;28;20431;-52
2022/05/03 03:27:40;;;;;;;0.47;0.40;;;;;;;12.98;100.00;94992.44;5112195;28;20875;-52
2022/05/03 03:30:11;;;;;;;0.97;0.67;;;;;;;13.06;100.00;94991.00;5111799;28;20435;-52
2022/05/03 03:32:41;;;;;;;0.70;0.43;;;;;;;13.10;100.00;94990.16;5111829;28;20433;-52
2022/05/03 03:35:13;;;;;;;0.57;0.57;;;;;;;13.19;100.00;94999.06;5112312;28;20510;-53
2022/05/03 03:37:45;;;;;;;0.60;0.50;;;;;;;13.16;100.00;95004.16;5115546;28;20502;-53
2022/05/03 03:40:15;;;;;;;0.40;0.37;;;;;;;13.33;100.00;95007.06;5115937;28;20515;-52
2022/05/03 03:42:45;;;;;;;0.30;0.30;;;;;;;13.27;100.00;94976.28;5115539;28;20503;-52
2022/05/03 03:45:14;;;;;;;0.40;0.30;;;;;;;13.46;100.00;95006.28;5115322;28;20470;-52
2022/05/03 03:47:44;;;;;;;0.40;0.30;;;;;;;13.46;100.00;95008.19;5115473;28;20459;-52
2022/05/03 03:50:14;;;;;;;0.37;0.33;;;;;;;13.07;100.00;94950.03;5114692;28;20424;-52
2022/05/03 03:52:46;;;;;;;0.30;0.20;;;;;;;13.50;100.00;95012.59;5115724;28;20459;-52
2022/05/03 03:55:15;;;;;;;1.20;1.10;;;;;;;13.36;100.00;95011.78;5114911;28;20910;-53
2022/05/03 03:57:44;;;;;;;0.80;0.80;;;;;;;12.94;100.00;94964.06;5114517;28;20492;-52
2022/05/03 04:00:15;;;;;;;0.40;0.40;;;;;;;13.40;100.00;95017.31;5114537;28;20929;-52
2022/05/03 04:02:45;;;;;;;1.83;0.60;;;;;;;13.33;100.00;95015.06;5114573;28;20446;-51
2022/05/03 04:05:16;;;;;;;2.10;0.60;;;;;;;12.92;100.00;95016.78;5115277;28;20423;-51
2022/05/03 04:07:46;;;;;;;0.37;0.30;;;;;;;12.92;100.00;95017.56;5114891;28;20475;-51
2022/05/03 04:10:15;;;;;;;0.60;0.60;;;;;;;13.13;100.00;95020.72;5115317;28;20427;-52
2022/05/03 04:12:43;;;;;;;0.30;0.30;;;;;;;13.31;100.00;95033.16;5114949;28;20973;-53
2022/05/03 04:15:12;;;;;;;0.40;0.40;;;;;;;13.05;100.00;95027.47;5115098;28;20416;-52
2022/05/03 04:17:43;;;;;;;0.53;0.53;;;;;;;12.22;100.00;94928.28;5115006;28;20435;-53
2022/05/03 04:20:12;;;;;;;0.30;0.30;;;;;;;12.84;100.00;95026.22;5114852;28;20423;-53
2022/05/03 04:22:41;;;;;;;0.50;0.47;;;;;;;12.91;100.00;95026.63;5114354;28;20459;-54
2022/05/03 04:25:11;;;;;;;0.63;0.47;;;;;;;12.25;100.00;95032.09;5114960;28;20427;-52
2022/05/03 04:27:40;;;;;;;0.83;0.83;;;;;;;11.85;100.00;95046.69;5114624;28;20424;-53
2022/05/03 04:30:10;;;;;;;0.87;0.87;;;;;;;11.95;100.00;95033.28;5114473;28;20431;-54
2022/05/03 04:32:38;;;;;;;0.40;0.20;;;;;;;12.15;100.00;95036.75;5114438;28;20426;-54
2022/05/03 04:35:07;;;;;;;0.40;0.30;;;;;;;12.35;100.00;95036.50;5114200;28;20446;-53
2022/05/03 04:37:36;;;;;;;0.40;0.40;;;;;;;12.54;100.00;95040.75;5114442;28;20443;-53
2022/05/03 04:40:06;;;;;;;0.40;0.30;;;;;;;12.39;100.00;95040.97;5114403;28;20471;-54
2022/05/03 04:42:36;;;;;;;0.67;0.67;;;;;;;12.06;100.00;95033.97;5114145;28;20428;-53
2022/05/03 04:45:05;;;;;;;0.70;0.70;;;;;;;12.39;100.00;95045.50;5113809;28;20486;-53
2022/05/03 04:47:34;;;;;;;0.50;0.50;;;;;;;12.44;100.00;95048.88;5113574;28;20921;-53
2022/05/03 04:50:03;;;;;;;0.77;0.77;;;;;;;12.39;100.00;95043.63;5113954;28;20438;-53
2022/05/03 04:52:32;;;;;;;0.50;0.50;;;;;;;12.59;100.00;95045.22;5114015;28;20960;-53
2022/05/03 04:55:00;;;;;;;0.50;0.40;;;;;;;12.21;100.00;95044.41;5114091;28;20949;-53
2022/05/03 04:57:29;;;;;;;0.30;0.20;;;;;;;12.51;100.00;95041.31;5113942;28;20424;-59
2022/05/03 04:59:59;;;;;;;0.40;0.40;;;;;;;12.56;100.00;95035.13;5114128;28;20481;-49
2022/05/03 05:02:28;;;;;;;0.40;0.30;;;;;;;12.82;100.00;95048.84;5113942;28;20424;-49
2022/05/03 05:04:57;;;;;;;0.40;0.30;;;;;;;12.96;100.00;95045.16;5113971;28;20480;-49
2022/05/03 05:07:26;;;;;;;0.40;0.30;;;;;;;12.96;100.00;95042.50;5113879;28;20435;-49
2022/05/03 05:12:40;;;;;;;2.53;1.53;;;;;;;12.68;100.00;95046.91;5113817;28;20796;-49
2022/05/03 05:15:11;;;;;;;0.70;0.70;;;;;;;13.06;100.00;95052.19;5113907;28;20430;-49
2022/05/03 05:17:40;;;;;;;0.40;0.40;;;;;;;12.94;100.00;95057.19;5113867;28;20423;-49
2022/05/03 05:20:09;;;;;;;0.70;0.70;;;;;;;12.89;100.00;95052.72;5113629;28;20999;-49
2022/05/03 05:22:37;;;;;;;0.40;0.30;;;;;;;12.56;100.00;95051.88;5113813;28;20515;-49
2022/05/03 05:25:06;;;;;;;0.30;0.20;;;;;;;12.90;100.00;95045.53;5113687;28;20527;-49
2022/05/03 05:27:34;;;;;;;0.60;0.30;;;;;;;12.96;100.00;95063.00;5113815;28;20836;-49
2022/05/03 05:30:03;;;;;;;0.30;0.30;;;;;;;12.80;100.00;95059.00;5113809;28;20463;-49
2022/05/03 05:32:33;;;;;;;4.97;0.37;;;;;;;12.79;100.00;95063.53;5113811;28;20423;-49
2022/05/03 05:35:01;;;;;;;0.50;0.37;;;;;;;13.13;100.00;95066.72;5113492;28;20434;-49
2022/05/03 05:37:30;;;;;;;0.40;0.30;;;;;;;13.13;100.00;95071.28;5113746;28;20792;-49
2022/05/03 05:39:58;;;;;;;0.40;0.30;;;;;;;12.24;100.00;94982.72;5113206;28;20511;-49
2022/05/03 05:42:26;;;;;;;0.70;0.40;;;;;;;13.03;100.00;95071.41;5113139;28;20518;-49
2022/05/03 05:44:55;;;;;;;0.60;0.60;;;;;;;12.70;100.00;95071.34;5112729;28;20479;-50
2022/05/03 05:47:23;;;;;;;0.40;0.30;;;;;;;12.43;100.00;95065.09;5113502;28;20819;-49
2022/05/03 05:49:53;;;;;;;0.40;0.30;;;;;;;12.37;100.00;95084.84;5113502;28;20451;-49
2022/05/03 05:55:09;;;;;;;0.60;0.33;;;;;;;12.21;100.00;95075.47;5113052;28;20423;-49
2022/05/03 05:57:37;;;;;;;0.40;0.30;;;;;;;12.17;100.00;95085.88;5112497;28;20459;-49
2022/05/03 06:00:07;;;;;;;0.40;0.30;;;;;;;12.55;100.00;95086.72;5112462;28;20549;-49
2022/05/03 06:02:36;;;;;;;0.63;0.40;;;;;;;12.36;100.00;95086.72;5113028;28;20809;-49
2022/05/03 06:05:06;;;;;;;0.50;0.30;;;;;;;12.85;100.00;95088.19;5113267;28;20416;-49
2022/05/03 06:07:35;;;;;;;0.40;0.30;;;;;;;12.73;100.00;95092.06;5112991;28;20427;-50
2022/05/03 06:10:04;;;;;;;0.70;0.70;;;;;;;12.54;100.00;95098.44;5112756;28;20511;-49
2022/05/03 06:12:32;;;;;;;0.50;0.50;;;;;;;12.14;100.00;95093.63;5112941;28;20447;-49
2022/05/03 06:15:01;;;;;;;1.33;1.33;;;;;;;12.28;100.00;95102.50;5112849;28;20492;-50
2022/05/03 06:17:29;;;;;;;0.30;0.30;;;;;;;12.29;100.00;95104.88;5112596;28;20467;-50
2022/05/03 06:19:58;;;;;;;0.50;0.40;;;;;;;12.12;100.00;95101.88;5112197;28;20486;-50
2022/05/03 06:22:28;;;;;;;0.30;0.20;;;;;;;11.94;100.00;95095.44;5112525;28;20459;-50
2022/05/03 06:24:56;;;;;;;0.30;0.30;;;;;;;12.44;100.00;95106.56;5112624;28;20509;-50
2022/05/03 06:27:24;;;;;;;0.30;0.20;;;;;;;12.61;100.00;95107.66;5112340;28;20463;-50
2022/05/03 06:29:53;;;;;;;0.40;0.33;;;;;;;12.40;100.00;95105.53;5112777;28;20466;-50
2022/05/03 06:32:21;;;;;;;2.53;0.80;;;;;;;12.03;100.00;95103.59;5112736;28;21053;-50
2022/05/03 06:34:50;;;;;;;0.70;0.70;;;;;;;11.75;100.00;95105.22;5112522;28;20519;-49
2022/05/03 06:37:18;;;;;;;0.40;0.27;;;;;;;11.94;100.00;95113.25;5112195;28;21024;-49
2022/05/03 06:39:48;;;;;;;0.30;0.20;;;;;;;12.42;100.00;95106.81;5112403;28;20493;-49
2022/05/03 06:42:18;;;;;;;0.40;0.40;;;;;;;12.37;100.00;95100.81;5112022;28;20475;-49
2022/05/03 06:44:47;;;;;;;0.60;0.40;;;;;;;12.56;100.00;95112.22;5111973;28;20569;-49
2022/05/03 06:47:16;;;;;;;0.30;0.20;;;;;;;12.82;100.00;95113.47;5112525;28;20443;-49
2022/05/03 06:49:44;;;;;;;0.60;0.60;;;;;;;12.69;100.00;95116.84;5112133;28;20964;-49
2022/05/03 06:52:13;;;;;;;1.27;1.17;;;;;;;12.94;100.00;95121.00;5112184;28;20945;-48
2022/05/03 06:54:41;;;;;;;0.50;0.43;;;;;;;12.85;100.00;95117.44;5094033;28;20427;-51
2022/05/03 06:57:11;;;;;;;0.40;0.30;;;;;;;12.37;100.00;95116.75;5112038;28;20521;-51
2022/05/03 06:59:39;;;;;;;0.30;0.30;;;;;;;12.31;100.00;95121.31;5111951;28;20525;-52
2022/05/03 07:02:08;;;;;;;0.50;0.50;;;;;;;12.41;100.00;95118.53;5112187;28;20451;-52
2022/05/03 07:04:37;;;;;;;0.97;0.63;;;;;;;12.80;100.00;95122.81;5111967;28;20424;-52
2022/05/03 07:07:06;;;;;;;0.40;0.30;;;;;;;13.37;100.00;95122.50;5111196;28;20458;-52
2022/05/03 07:09:34;;;;;;;0.47;0.40;;;;;;;13.33;100.00;95116.19;5113126;28;20506;-52
2022/05/03 07:12:02;;;;;;;0.30;0.20;;;;;;;13.47;100.00;95127.66;5116040;28;20467;-52
2022/05/03 07:14:32;;;;;;;0.43;0.43;;;;;;;13.49;100.00;95122.84;5115894;28;20423;-52
2022/05/03 07:17:00;;;;;;;0.40;0.30;;;;;;;13.61;100.00;95123.16;5116199;28;20535;-52
2022/05/03 07:25:01;;;;;;;0.50;0.50;;;;;;;13.07;100.00;95120.31;5116026;28;20518;-52
2022/05/03 07:27:30;;;;;;;1.50;0.40;;;;;;;12.75;100.00;95123.66;5115939;28;20432;-52
2022/05/03 07:29:59;;;;;;;0.80;0.80;;;;;;;13.08;100.00;95133.31;5115745;28;20985;-51
2022/05/03 07:32:28;;;;;;;0.50;0.50;;;;;;;13.23;100.00;95127.00;5115554;28;20512;-51
2022/05/03 07:34:56;;;;;;;0.47;0.30;;;;;;;12.80;100.00;95125.47;5115640;28;20427;-52
2022/05/03 07:37:24;;;;;;;0.60;0.50;;;;;;;13.52;100.00;95124.94;5115439;28;20510;-52
2022/05/03 07:39:53;;;;;;;0.37;0.30;;;;;;;13.76;100.00;95127.47;5115592;28;20496;-52
2022/05/03 07:42:21;;;;;;;0.40;0.40;;;;;;;13.64;100.00;95127.91;5115436;28;20463;-52
2022/05/03 07:44:49;;;;;;;0.40;0.30;;;;;;;14.36;100.00;95122.88;5115205;28;20502;-52
2022/05/03 07:47:19;;;;;;;5.90;0.50;;;;;;;14.23;100.00;95124.44;5115442;28;20424;-52
2022/05/03 07:49:48;;;;;;;0.50;0.30;;;;;;;14.17;100.00;95124.81;5115144;28;20531;-52
2022/05/03 07:52:16;;;;;;;0.30;0.27;;;;;;;14.54;100.00;95122.78;5115532;28;20791;-52
2022/05/03 07:54:45;;;;;;;0.67;0.67;;;;;;;13.31;100.00;94987.91;5115552;28;20455;-52
2022/05/03 07:57:13;;;;;;;0.60;0.60;;;;;;;14.31;100.00;95126.44;5114930;28;20936;-52
2022/05/03 07:59:42;;;;;;;0.40;0.40;;;;;;;13.46;100.00;95128.75;5115141;28;20477;-52
2022/05/03 08:02:11;;;;;;;1.03;0.87;;;;;;;13.80;100.00;95129.25;5115153;28;20480;-52
2022/05/03 08:04:41;;;;;;;0.40;0.30;;;;;;;14.16;100.00;95132.03;5114987;28;20431;-53
2022/05/03 08:07:09;;;;;;;0.50;0.30;;;;;;;14.04;100.00;95126.38;5114977;28;20458;-52
2022/05/03 08:09:38;;;;;;;0.33;0.30;;;;;;;13.93;100.00;95125.00;5115098;28;20859;-52
2022/05/03 08:12:08;;;;;;;0.30;0.20;;;;;;;13.52;100.00;95127.59;5114975;28;20457;-52
2022/05/03 08:14:36;;;;;;;0.60;0.50;;;;;;;13.82;100.00;95126.25;5115274;28;20499;-52
2022/05/03 08:17:06;;;;;;;0.40;0.30;;;;;;;13.79;100.00;95124.97;5114851;28;20999;-51
2022/05/03 08:19:34;;;;;;;0.30;0.20;;;;;;;14.43;100.00;95125.94;5114810;28;20415;-52
2022/05/03 08:22:05;;;;;;;0.30;0.20;;;;;;;14.27;100.00;95129.97;5113676;28;20475;-52
2022/05/03 08:24:33;;;;;;;0.50;0.30;;;;;;;13.61;100.00;95072.56;5114821;28;20424;-52
2022/05/03 08:27:02;;;;;;;0.40;0.30;;;;;;;13.56;100.00;95133.13;5114531;28;21008;-52
2022/05/03 08:29:32;;;;;;;0.30;0.30;;;;;;;13.54;100.00;95120.09;5114812;28;20458;-52
2022/05/03 08:32:00;;;;;;;0.30;0.30;;;;;;;14.16;100.00;95136.56;5114663;28;20459;-52
2022/05/03 08:34:29;;;;;;;0.30;0.20;;;;;;;13.26;100.00;95051.88;5114618;28;20428;-52
2022/05/03 08:42:31;;;;;;;0.40;0.30;;;;;;;13.57;100.00;95138.16;5114056;28;20482;-52
2022/05/03 08:45:00;;;;;;;0.60;0.60;;;;;;;13.56;100.00;95131.25;5114120;28;20467;-56
2022/05/03 08:47:29;;;;;;;0.40;0.30;;;;;;;13.75;100.00;95133.84;5114198;28;21010;-53
2022/05/03 08:50:02;;;;;;;0.77;0.60;;;;;;;12.61;100.00;95025.22;5113855;28;20451;-51
2022/05/03 08:52:33;;;;;;;0.30;0.20;;;;;;;13.53;100.00;95129.19;5114041;28;20443;-52
2022/05/03 08:55:04;;;;;;;0.30;0.20;;;;;;;14.01;100.00;95135.75;5114110;28;20443;-51
2022/05/03 08:57:33;;;;;;;0.40;0.30;;;;;;;14.36;100.00;95129.00;5114207;28;20446;-51
2022/05/03 09:00:04;;;;;;;0.40;0.40;;;;;;;14.67;100.00;95126.53;5113818;28;20431;-52
2022/05/03 09:02:33;;;;;;;0.50;0.40;;;;;;;14.77;89.07;95125.50;5114198;28;20419;-51
2022/05/03 09:05:02;;;;;;;0.30;0.20;;;;;;;14.82;91.27;95120.84;5114181;28;20514;-52
2022/05/03 09:07:34;;;;;;;0.30;0.20;;;;;;;14.99;89.49;95133.56;5113898;28;20467;-53
2022/05/03 09:10:18;;;;;;;0.30;0.20;;;;;;;15.23;98.79;95124.16;5113690;28;20462;-53
2022/05/03 09:12:49;;;;;;;0.30;0.20;;;;;;;15.31;93.65;95125.31;5113712;28;20458;-53
2022/05/03 09:15:29;;;;;;;3.33;1.00;;;;;;;15.17;92.02;95130.75;5114043;28;20458;-52
2022/05/03 09:17:58;;;;;;;0.50;0.50;;;;;;;15.68;93.84;95127.69;5113635;28;20470;-53
2022/05/03 09:26:13;;;;;;;0.40;0.30;;;;;;;15.98;99.34;95126.09;5113730;28;20439;-52
2022/05/03 09:28:46;;;;;;;0.73;0.37;;;;;;;15.43;94.80;95127.47;5113824;28;20415;-53
2022/05/03 09:31:26;;;;;;;0.47;0.40;;;;;;;15.42;95.36;95107.97;5113599;28;20862;-53
2022/05/03 09:33:55;;;;;;;0.40;0.30;;;;;;;15.39;95.02;95121.16;5113154;28;20435;-52
2022/05/03 09:36:24;;;;;;;0.43;0.43;;;;;;;15.42;91.81;95121.34;5113101;28;21067;-53
2022/05/03 09:39:22;;;;;;;2.33;2.23;;;;;;;15.51;85.47;95124.09;5113202;28;20434;-53
2022/05/03 09:42:11;;;;;;;0.73;0.73;;;;;;;15.08;88.77;95126.41;5113173;28;20513;-53
2022/05/03 09:44:52;;;;;;;0.40;0.30;;;;;;;15.32;91.54;95123.47;5112835;28;20463;-54
2022/05/03 09:47:23;;;;;;;0.40;0.30;;;;;;;14.98;86.23;95116.75;5113417;28;20813;-53
2022/05/03 09:49:52;;;;;;;0.50;0.43;;;;;;;15.12;84.29;95122.06;5112844;28;20428;-53
2022/05/03 09:52:28;;;;;;;0.50;0.30;;;;;;;15.26;81.44;95112.09;5113290;28;20439;-54
2022/05/03 09:55:03;;;;;;;0.40;0.30;;;;;;;15.46;83.62;95121.53;5112942;28;20470;-53
2022/05/03 09:57:36;;;;;;;0.63;0.40;;;;;;;15.81;79.12;95110.75;5112901;28;20423;-53
2022/05/03 10:00:07;;;;;;;0.43;0.33;;;;;;;14.96;80.99;95035.41;5113045;28;20484;-53
2022/05/03 10:02:40;;;;;;;0.63;0.63;;;;;;;15.56;86.16;95115.97;5113049;28;20467;-53
2022/05/03 10:05:14;;;;;;;0.87;0.50;;;;;;;15.96;90.56;95104.25;5112787;28;20430;-53
2022/05/03 10:07:44;;;;;;;0.57;0.37;;;;;;;16.28;81.96;95100.44;5112589;28;20523;-53
2022/05/03 10:10:14;;;;;;;10.90;0.57;;;;;;;15.84;76.09;95101.34;5112671;28;20530;-52
2022/05/03 10:12:45;;;;;;;0.40;0.30;;;;;;;15.62;73.66;95104.03;5112743;28;20423;-53
2022/05/03 10:20:35;;;;;;;0.30;0.20;;;;;;;15.77;80.37;95103.66;5112800;28;20431;-53
2022/05/03 10:20:56;;;;;;;0.40;0.30;;;;;;;14.43;80.11;94997.94;5112778;28;20434;-54
2022/05/03 10:23:28;;;;;;;0.43;0.43;;;;;;;15.61;78.11;95097.16;5112396;28;20432;-52
2022/05/03 10:25:58;;;;;;;0.73;0.73;;;;;;;15.92;76.76;95084.56;5112115;28;20527;-52
2022/05/03 10:29:06;;;;;;;0.30;0.20;;;;;;;16.38;67.15;95092.13;5112372;28;20420;-52
2022/05/03 10:31:52;;;;;;;0.33;0.27;;;;;;;16.76;67.23;95084.34;5112295;28;20431;-53
2022/05/03 10:34:56;;;;;;;0.50;0.40;;;;;;;16.59;69.12;95081.66;5112088;28;20442;-53
2022/05/03 10:38:01;;;;;;;0.40;0.30;;;;;;;16.59;62.57;95090.47;5009552;28;20432;-53
2022/05/03 10:40:34;;;;;;;0.50;0.30;;;;;;;16.26;64.44;95070.53;5009830;28;20623;-54
2022/05/03 10:43:09;;;;;;;1.13;0.93;;;;;;;17.01;72.17;95065.63;5086921;28;20574;-53
2022/05/03 10:45:54;;;;;;;0.60;0.50;;;;;;;17.11;74.12;95080.59;5111885;28;20431;-53
2022/05/03 10:48:28;;;;;;;0.43;0.37;;;;;;;17.70;64.22;95074.41;5111796;28;20415;-53
2022/05/03 10:50:58;;;;;;;0.40;0.30;;;;;;;17.02;61.49;95085.16;5111661;28;20537;-53
2022/05/03 10:53:29;;;;;;;0.30;0.20;;;;;;;17.27;59.15;95079.03;5112011;28;20462;-53
2022/05/03 10:56:18;;;;;;;1.07;0.60;;;;;;;18.05;57.55;95071.59;5111698;28;20435;-53
2022/05/03 10:59:12;;;;;;;0.40;0.33;;;;;;;18.39;64.10;95079.50;5110922;28;20929;-54
2022/05/03 11:02:10;;;;;;;0.40;0.40;;;;;;;18.10;57.42;95068.75;5111704;28;20485;-54
2022/05/03 11:05:14;;;;;;;0.60;0.37;;;;;;;17.75;56.26;95068.88;5111888;28;20434;-55
2022/05/03 11:08:02;;;;;;;0.40;0.30;;;;;;;18.76;54.24;95065.25;5111960;28;20460;-56
2022/05/03 11:10:40;;;;;;;0.40;0.30;;;;;;;18.71;51.08;95067.34;5111442;28;20494;-56
2022/05/03 11:13:42;;;;;;;0.50;0.40;;;;;;;18.30;53.17;95058.06;5112052;28;20435;-56
2022/05/03 11:16:21;;;;;;;0.40;0.30;;;;;;;18.10;50.00;95064.16;5111845;28;20507;-56
2022/05/03 11:18:52;;;;;;;0.50;0.50;;;;;;;17.53;52.06;95068.31;5111061;28;20430;-56
2022/05/03 11:21:20;;;;;;;0.60;0.40;;;;;;;17.75;53.16;95049.31;5111726;28;20466;-56
2022/05/03 11:23:50;;;;;;;0.30;0.20;;;;;;;18.11;51.72;95049.66;5111508;28;20458;-56
2022/05/03 11:26:20;;;;;;;0.40;0.30;;;;;;;18.22;49.40;95056.22;5111761;28;20424;-55
2022/05/03 11:28:50;;;;;;;0.40;0.30;;;;;;;18.07;60.46;95059.44;5111906;28;20510;-55
2022/05/03 11:31:20;;;;;;;0.40;0.30;;;;;;;18.08;58.95;95061.03;5111628;28;20432;-56
2022/05/03 11:33:52;;;;;;;0.50;0.50;;;;;;;17.65;55.31;95042.41;5110540;28;20440;-56
2022/05/03 11:36:21;;;;;;;0.40;0.30;;;;;;;18.05;50.70;95050.16;5111825;28;20447;-56
2022/05/03 11:38:50;;;;;;;0.40;0.40;;;;;;;18.86;46.09;95051.44;5111468;28;20843;-56
2022/05/03 11:41:21;;;;;;;0.70;0.47;;;;;;;18.76;50.13;95048.34;5111527;28;20430;-55
2022/05/03 11:43:50;;;;;;;0.40;0.30;;;;;;;18.05;51.73;95053.63;5111910;28;20463;-55
2022/05/03 11:46:20;;;;;;;0.40;0.30;;;;;;;18.49;51.13;95038.91;5111540;28;20488;-57
2022/05/03 11:48:54;;;;;;;0.40;0.30;;;;;;;18.23;49.28;95046.28;5111462;28;20906;-56
2022/05/03 11:57:07;;;;;;;0.60;0.40;;;;;;;19.66;45.76;95027.03;5113047;28;20462;-57
2022/05/03 11:59:36;;;;;;;0.50;0.30;;;;;;;19.83;42.67;95029.53;5115405;28;20866;-57
2022/05/03 12:02:15;;;;;;;0.40;0.40;;;;;;;20.14;44.29;95002.84;5114998;28;20806;-58
2022/05/03 12:05:11;;;;;;;0.40;0.30;;;;;;;21.21;45.96;95018.41;5115450;28;20423;-58
2022/05/03 12:07:42;;;;;;;0.90;0.30;;;;;;;20.14;40.75;95022.50;5103428;28;20488;-57
2022/05/03 12:10:22;;;;;;;2.60;0.40;;;;;;;20.70;41.02;94993.06;5114510;28;20433;-56
2022/05/03 12:13:06;;;;;;;0.73;0.53;;;;;;;21.42;43.32;95016.31;5115092;28;20488;-56
2022/05/03 12:15:36;;;;;;;0.37;0.30;;;;;;;20.35;44.36;95016.22;5115034;28;20423;-56
2022/05/03 12:18:19;;;;;;;0.40;0.30;;;;;;;20.10;43.65;94843.22;5114901;28;20424;-56
2022/05/03 12:20:51;;;;;;;0.40;0.30;;;;;;;19.03;45.68;95019.06;5115005;28;20455;-57
2022/05/03 12:23:22;;;;;;;0.60;0.60;;;;;;;19.55;49.02;95022.09;5114642;28;20502;-57
2022/05/03 12:25:52;;;;;;;1.90;1.80;;;;;;;18.69;47.92;95026.63;5114726;28;20423;-58
2022/05/03 12:28:21;;;;;;;0.40;0.27;;;;;;;18.39;50.57;95017.78;5114918;28;20902;-58
2022/05/03 12:30:57;;;;;;;2.10;0.50;;;;;;;18.48;50.89;95021.22;5114813;28;20540;-58
2022/05/03 12:33:28;;;;;;;0.50;0.30;;;;;;;18.59;54.55;95022.44;5113955;28;20419;-58
2022/05/03 12:35:58;;;;;;;0.40;0.40;;;;;;;17.97;53.73;95034.88;5113915;28;20427;-58
2022/05/03 12:38:27;;;;;;;1.67;0.80;;;;;;;17.37;54.95;95033.16;5113856;28;20864;-56